Glasgow, Kentucky
Current Conditions -  °F | °C
As of 11:15 AM on Sunday 23 Nov 2014 (Local Time) from KGLW Reporting Station
Overcast Overcast  
Wind Chill: 57°   Ceiling: 4900
Heat Index: 57°   Visibility: 10mi
Dew Point: 51°   Wind: 9mph
Humidity: 79%   Direction: 130°SE
Pressure: 29.76"   Gusts: NA
Location:  36.99°N, 85.91°W
Report Text: KGLW 231715Z AUTO 13008KT 10SM SCT023 SCT038 OVC049 14/11 A2976 RMK AO2 T01400105
Loading
Personal Weather Stations






























Interactive Weather Map New forecast layout! Learn more

10-Day Weather Forecast

Advertisements
Track Severe Weather on mobile